createdAt,value
2018-11-06T00:00:40.196Z,985.46
2018-11-06T00:01:50.333Z,985.48
2018-11-06T00:02:59.909Z,985.5
2018-11-06T00:04:09.763Z,985.49
2018-11-06T00:05:19.641Z,985.51
2018-11-06T00:06:29.490Z,985.49
2018-11-06T00:07:39.614Z,985.47
2018-11-06T00:08:49.188Z,985.54
2018-11-06T00:09:59.324Z,985.47
2018-11-06T00:11:08.902Z,985.4
2018-11-06T00:12:18.762Z,985.4
2018-11-06T00:13:28.612Z,985.38
2018-11-06T00:14:38.473Z,985.36
2018-11-06T00:15:48.326Z,985.4
2018-11-06T00:16:58.178Z,985.39
2018-11-06T00:18:08.308Z,985.4
2018-11-06T00:19:18.162Z,985.44
2018-11-06T00:20:28.293Z,985.43
2018-11-06T00:21:38.425Z,985.42
2018-11-06T00:22:48.549Z,985.42
2018-11-06T00:23:58.127Z,985.43
2018-11-06T00:25:08.254Z,985.4
2018-11-06T00:26:18.399Z,985.35
2018-11-06T00:27:28.258Z,985.34
2018-11-06T00:28:38.124Z,985.36
2018-11-06T00:29:47.982Z,985.35
2018-11-06T00:30:57.835Z,985.37
2018-11-06T00:32:07.961Z,985.38
2018-11-06T00:33:18.090Z,985.37
2018-11-06T00:34:27.949Z,985.3
2018-11-06T00:35:37.253Z,985.33
2018-11-06T00:36:47.382Z,985.37
2018-11-06T00:37:57.505Z,985.34
2018-11-06T00:39:07.080Z,985.3
2018-11-06T00:40:16.936Z,985.22
2018-11-06T00:41:27.061Z,985.24
2018-11-06T00:42:37.198Z,985.24
2018-11-06T00:43:47.050Z,985.22
2018-11-06T00:44:56.634Z,985.21
2018-11-06T00:46:06.819Z,985.17
2018-11-06T00:47:16.945Z,985.2
2018-11-06T00:48:27.072Z,985.19
2018-11-06T00:49:37.208Z,985.23
2018-11-06T00:50:47.392Z,985.23
2018-11-06T00:51:56.987Z,985.2
2018-11-06T00:53:06.836Z,985.16
2018-11-06T00:54:16.971Z,985.18
2018-11-06T00:55:27.105Z,985.13
2018-11-06T00:56:36.961Z,985.18
2018-11-06T00:57:47.107Z,985.12
2018-11-06T00:58:57.206Z,985.09
2018-11-06T01:00:06.505Z,985.09
2018-11-06T01:01:16.377Z,985.08
2018-11-06T01:02:25.703Z,985.05
2018-11-06T01:03:35.282Z,985.02
2018-11-06T01:04:45.440Z,985.06
2018-11-06T01:05:55.570Z,985.02
2018-11-06T01:07:05.706Z,985
2018-11-06T01:08:15.893Z,985.01
2018-11-06T01:09:26.024Z,985
2018-11-06T01:10:35.871Z,984.94
2018-11-06T01:11:45.995Z,984.95
2018-11-06T01:12:56.139Z,984.91
2018-11-06T01:14:06.335Z,984.92
2018-11-06T01:15:16.202Z,984.92
2018-11-06T01:16:26.057Z,984.88
2018-11-06T01:17:35.631Z,984.91
2018-11-06T01:18:45.769Z,984.89
2018-11-06T01:19:55.629Z,984.87
2018-11-06T01:21:05.202Z,984.91
2018-11-06T01:22:14.781Z,984.9
2018-11-06T01:23:24.904Z,984.86
2018-11-06T01:24:35.034Z,984.88
2018-11-06T01:25:45.170Z,984.87
2018-11-06T01:26:55.031Z,984.83
2018-11-06T01:28:04.910Z,984.86
2018-11-06T01:29:14.213Z,984.78
2018-11-06T01:30:24.101Z,984.83
2018-11-06T01:31:34.274Z,984.84
2018-11-06T01:32:44.127Z,984.86
2018-11-06T01:33:53.702Z,984.88
2018-11-06T01:35:03.552Z,984.86
2018-11-06T01:36:13.126Z,984.78
2018-11-06T01:37:22.702Z,984.78
2018-11-06T01:38:32.824Z,984.75
2018-11-06T01:39:42.955Z,984.75
2018-11-06T01:40:53.080Z,984.78
2018-11-06T01:42:02.933Z,984.76
2018-11-06T01:43:12.509Z,984.74
2018-11-06T01:44:22.635Z,984.74
2018-11-06T01:45:32.488Z,984.76
2018-11-06T01:46:42.616Z,984.79
2018-11-06T01:47:52.468Z,984.81
2018-11-06T01:49:02.610Z,984.82
2018-11-06T01:50:12.464Z,984.85
2018-11-06T01:51:22.103Z,984.84
2018-11-06T01:52:32.232Z,984.85
2018-11-06T01:53:42.360Z,984.9
2018-11-06T01:54:52.206Z,984.89
2018-11-06T01:56:02.061Z,984.87
2018-11-06T01:57:11.362Z,984.87
2018-11-06T01:58:21.492Z,984.83
2018-11-06T01:59:31.345Z,984.78
2018-11-06T02:00:41.523Z,984.76
2018-11-06T02:01:51.647Z,984.78
2018-11-06T02:03:01.770Z,984.73
2018-11-06T02:04:11.617Z,984.7
2018-11-06T02:05:20.919Z,984.72
2018-11-06T02:06:30.769Z,984.68
2018-11-06T02:07:40.894Z,984.64
2018-11-06T02:08:51.022Z,984.67
2018-11-06T02:10:00.871Z,984.64
2018-11-06T02:11:10.733Z,984.62
2018-11-06T02:12:20.853Z,984.62
2018-11-06T02:13:30.707Z,984.61
2018-11-06T02:14:40.833Z,984.61
2018-11-06T02:15:50.680Z,984.63
2018-11-06T02:17:00.531Z,984.57
2018-11-06T02:18:10.704Z,984.52
2018-11-06T02:19:20.831Z,984.46
2018-11-06T02:20:30.959Z,984.42
2018-11-06T02:21:40.538Z,984.41
2018-11-06T02:22:50.671Z,984.43
2018-11-06T02:24:00.518Z,984.49
2018-11-06T02:25:10.678Z,984.51
2018-11-06T02:26:20.801Z,984.53
2018-11-06T02:27:30.936Z,984.56
2018-11-06T02:28:40.786Z,984.6
2018-11-06T02:29:50.903Z,984.57
2018-11-06T02:31:01.040Z,984.62
2018-11-06T02:32:11.231Z,984.58
2018-11-06T02:33:21.489Z,984.55
2018-11-06T02:34:31.342Z,984.52
2018-11-06T02:35:41.193Z,984.53
2018-11-06T02:36:51.328Z,984.51
2018-11-06T02:38:01.480Z,984.49
2018-11-06T02:39:11.072Z,984.41
2018-11-06T02:40:20.925Z,984.38
2018-11-06T02:41:30.776Z,984.4
2018-11-06T02:42:40.628Z,984.37
2018-11-06T02:43:50.764Z,984.34
2018-11-06T02:45:00.887Z,984.4
2018-11-06T02:46:10.466Z,984.39
2018-11-06T02:47:20.594Z,984.38
2018-11-06T02:48:30.718Z,984.36
2018-11-06T02:49:40.570Z,984.37
2018-11-06T02:50:50.711Z,984.38
2018-11-06T02:52:00.846Z,984.4
2018-11-06T02:53:10.155Z,984.39
2018-11-06T02:54:20.295Z,984.39
2018-11-06T02:55:29.875Z,984.37
2018-11-06T02:56:40.206Z,984.36
2018-11-06T02:57:50.060Z,984.36
2018-11-06T02:58:59.920Z,984.37
2018-11-06T03:00:09.780Z,984.36
2018-11-06T03:01:19.917Z,984.39
2018-11-06T03:02:29.493Z,984.35
2018-11-06T03:03:39.070Z,984.39
2018-11-06T03:04:49.271Z,984.4
2018-11-06T03:05:58.849Z,984.4
2018-11-06T03:07:08.975Z,984.35
2018-11-06T03:08:18.553Z,984.35
2018-11-06T03:09:28.401Z,984.28
2018-11-06T03:10:38.531Z,984.28
2018-11-06T03:11:48.660Z,984.3
2018-11-06T03:12:58.528Z,984.37
2018-11-06T03:14:08.658Z,984.39
2018-11-06T03:15:18.248Z,984.45
2018-11-06T03:16:28.105Z,984.39
2018-11-06T03:17:38.326Z,984.41
2018-11-06T03:18:47.914Z,984.39
2018-11-06T03:19:57.769Z,984.39
2018-11-06T03:21:07.620Z,984.32
2018-11-06T03:22:17.480Z,984.25
2018-11-06T03:23:27.059Z,984.21
2018-11-06T03:24:37.192Z,984.25
2018-11-06T03:25:47.319Z,984.25
2018-11-06T03:26:57.532Z,984.23
2018-11-06T03:28:08.501Z,984.19
2018-11-06T03:29:18.637Z,984.25
2018-11-06T03:30:27.941Z,984.25
2018-11-06T03:31:38.079Z,984.26
2018-11-06T03:32:48.213Z,984.3
2018-11-06T03:33:57.864Z,984.3
2018-11-06T03:35:07.729Z,984.26
2018-11-06T03:36:17.879Z,984.27
2018-11-06T03:37:28.013Z,984.22
2018-11-06T03:38:37.876Z,984.21
2018-11-06T03:39:48.002Z,984.19
2018-11-06T03:40:58.148Z,984.15
2018-11-06T03:42:08.025Z,984.08
2018-11-06T03:43:17.875Z,984.08
2018-11-06T03:44:28.005Z,984.13
2018-11-06T03:45:38.183Z,984.17
2018-11-06T03:46:47.485Z,984.2
2018-11-06T03:47:57.067Z,984.17
2018-11-06T03:49:06.930Z,984.15
2018-11-06T03:50:16.789Z,984.18
2018-11-06T03:51:26.646Z,984.14
2018-11-06T03:52:36.495Z,984.13
2018-11-06T03:53:46.360Z,984.21
2018-11-06T03:54:56.485Z,984.13
2018-11-06T03:56:06.359Z,984.2
2018-11-06T03:57:15.670Z,984.15
2018-11-06T03:58:25.523Z,984.13
2018-11-06T03:59:35.652Z,984.14
2018-11-06T04:00:45.781Z,984.08
2018-11-06T04:01:55.649Z,984.12
2018-11-06T04:03:05.522Z,984.11
2018-11-06T04:04:15.389Z,984.09
2018-11-06T04:05:24.974Z,984.03
2018-11-06T04:06:35.113Z,984.08
2018-11-06T04:07:44.971Z,984.04
2018-11-06T04:08:54.609Z,984.02
2018-11-06T04:10:04.461Z,984.03
2018-11-06T04:11:14.596Z,984.05
2018-11-06T04:12:24.446Z,984.02
2018-11-06T04:13:34.295Z,983.99
2018-11-06T04:14:43.876Z,983.99
2018-11-06T04:15:54.009Z,983.96
2018-11-06T04:17:03.865Z,983.99
2018-11-06T04:18:13.719Z,983.97
2018-11-06T04:19:23.301Z,983.93
2018-11-06T04:20:33.151Z,983.95
2018-11-06T04:21:43.281Z,984
2018-11-06T04:22:53.405Z,984.01
2018-11-06T04:24:02.978Z,984.02
2018-11-06T04:25:13.103Z,984.03
2018-11-06T04:26:23.296Z,984
2018-11-06T04:27:33.147Z,984.02
2018-11-06T04:28:42.742Z,984.04
2018-11-06T04:29:52.596Z,983.96
2018-11-06T04:31:02.545Z,983.88
2018-11-06T04:32:12.405Z,983.88
2018-11-06T04:33:22.259Z,983.93
2018-11-06T04:34:31.850Z,983.89
2018-11-06T04:35:41.988Z,983.88
2018-11-06T04:36:52.120Z,983.81
2018-11-06T04:38:01.980Z,983.82
2018-11-06T04:39:11.830Z,983.83
2018-11-06T04:40:21.961Z,983.85
2018-11-06T04:41:32.090Z,983.83
2018-11-06T04:42:42.236Z,983.84
2018-11-06T04:43:52.105Z,983.87
2018-11-06T04:45:01.962Z,983.87
2018-11-06T04:46:12.098Z,983.89
2018-11-06T04:47:21.400Z,983.92
2018-11-06T04:48:31.254Z,983.96
2018-11-06T04:49:41.110Z,984.03
2018-11-06T04:50:51.214Z,984.05
2018-11-06T04:52:00.788Z,984.02
2018-11-06T04:53:10.772Z,984.02
2018-11-06T04:54:20.899Z,984.03
2018-11-06T04:55:30.478Z,984.03
2018-11-06T04:56:40.344Z,984.04
2018-11-06T04:57:50.203Z,984.06
2018-11-06T04:59:00.067Z,984.06
2018-11-06T05:00:09.646Z,984.01
2018-11-06T05:01:19.225Z,984.01
2018-11-06T05:02:29.079Z,983.97
2018-11-06T05:03:38.706Z,983.88
2018-11-06T05:04:48.569Z,983.84
2018-11-06T05:05:58.709Z,983.78
2018-11-06T05:07:08.846Z,983.77
2018-11-06T05:08:18.990Z,983.79
2018-11-06T05:09:29.122Z,983.69
2018-11-06T05:10:39.258Z,983.64
2018-11-06T05:11:48.844Z,983.58
2018-11-06T05:12:58.978Z,983.54
2018-11-06T05:14:09.168Z,983.52
2018-11-06T05:15:19.094Z,983.54
2018-11-06T05:16:28.673Z,983.5
2018-11-06T05:17:38.801Z,983.49
2018-11-06T05:18:48.712Z,983.41
2018-11-06T05:19:58.607Z,983.38
2018-11-06T05:21:08.189Z,983.39
2018-11-06T05:22:18.312Z,983.38
2018-11-06T05:23:28.442Z,983.39
2018-11-06T05:24:38.563Z,983.37
2018-11-06T05:25:48.699Z,983.35
2018-11-06T05:26:58.830Z,983.32
2018-11-06T05:28:08.690Z,983.25
2018-11-06T05:29:18.279Z,983.27
2018-11-06T05:30:28.133Z,983.28
2018-11-06T05:31:37.432Z,983.34
2018-11-06T05:32:47.635Z,983.32
2018-11-06T05:33:58.348Z,983.33
2018-11-06T05:35:08.203Z,983.29
2018-11-06T05:36:18.073Z,983.27
2018-11-06T05:37:27.648Z,983.28
2018-11-06T05:38:37.501Z,983.25
2018-11-06T05:39:47.704Z,983.26
2018-11-06T05:40:57.289Z,983.32
2018-11-06T05:42:07.147Z,983.41
2018-11-06T05:43:17.001Z,983.45
2018-11-06T05:44:26.874Z,983.42
2018-11-06T05:45:37.057Z,983.39
2018-11-06T05:46:47.780Z,983.38
2018-11-06T05:47:57.909Z,983.38
2018-11-06T05:49:07.766Z,983.39
2018-11-06T05:50:17.899Z,983.38
2018-11-06T05:51:28.025Z,983.33
2018-11-06T05:52:38.152Z,983.24
2018-11-06T05:53:48.284Z,983.2
2018-11-06T05:54:58.139Z,983.25
2018-11-06T05:56:07.722Z,983.3
2018-11-06T05:57:17.845Z,983.36
2018-11-06T05:58:27.967Z,983.43
2018-11-06T05:59:37.816Z,983.37
2018-11-06T06:00:47.938Z,983.23
2018-11-06T06:01:58.063Z,983.21
2018-11-06T06:03:07.915Z,983.35
2018-11-06T06:04:18.046Z,983.43
2018-11-06T06:05:27.627Z,983.52
2018-11-06T06:06:37.787Z,983.58
2018-11-06T06:07:47.641Z,983.62
2018-11-06T06:08:57.491Z,983.62
2018-11-06T06:10:07.070Z,983.64
2018-11-06T06:11:17.018Z,983.63
2018-11-06T06:12:26.708Z,983.59
2018-11-06T06:13:36.560Z,983.48
2018-11-06T06:14:46.138Z,983.45
2018-11-06T06:15:55.988Z,983.44
2018-11-06T06:17:05.887Z,983.52
2018-11-06T06:18:16.077Z,983.46
2018-11-06T06:19:26.205Z,983.42
2018-11-06T06:20:35.778Z,983.35
2018-11-06T06:21:45.907Z,983.36
2018-11-06T06:22:55.207Z,983.35
2018-11-06T06:24:05.065Z,983.33
2018-11-06T06:25:14.917Z,983.4
2018-11-06T06:26:24.772Z,983.47
2018-11-06T06:27:34.893Z,983.47
2018-11-06T06:28:44.749Z,983.46
2018-11-06T06:29:54.892Z,983.47
2018-11-06T06:31:04.476Z,983.5
2018-11-06T06:32:13.825Z,983.56
2018-11-06T06:33:23.403Z,983.62
2018-11-06T06:34:33.645Z,983.67
2018-11-06T06:35:44.434Z,983.71
2018-11-06T06:36:54.289Z,983.74
2018-11-06T06:38:03.590Z,983.71
2018-11-06T06:39:18.742Z,983.69
2018-11-06T06:40:28.391Z,983.62
2018-11-06T06:41:38.520Z,983.57
2018-11-06T06:42:48.043Z,983.54
2018-11-06T06:43:58.168Z,983.5
2018-11-06T06:45:08.292Z,983.51
2018-11-06T06:46:18.192Z,983.47
2018-11-06T06:47:28.931Z,983.46
2018-11-06T06:48:39.055Z,983.5
2018-11-06T06:49:49.177Z,983.53
2018-11-06T06:50:59.038Z,983.49
2018-11-06T06:52:08.889Z,983.46
2018-11-06T06:53:18.736Z,983.48
2018-11-06T06:54:28.534Z,983.44
2018-11-06T06:55:40.289Z,983.41
2018-11-06T06:56:50.409Z,983.4
2018-11-06T06:57:59.716Z,983.41
2018-11-06T06:59:09.290Z,983.39
2018-11-06T07:00:19.139Z,983.41
2018-11-06T07:01:29.277Z,983.46
2018-11-06T07:02:39.537Z,983.47
2018-11-06T07:03:49.869Z,983.49
2018-11-06T07:04:59.738Z,983.46
2018-11-06T07:06:09.309Z,983.49
2018-11-06T07:07:19.161Z,983.46
2018-11-06T07:08:29.053Z,983.47
2018-11-06T07:09:38.626Z,983.49
2018-11-06T07:10:48.752Z,983.48
2018-11-06T07:11:58.882Z,983.49
2018-11-06T07:13:08.284Z,983.55
2018-11-06T07:14:18.623Z,983.52
2018-11-06T07:15:28.196Z,983.52
2018-11-06T07:16:38.320Z,983.53
2018-11-06T07:17:48.190Z,983.56
2018-11-06T07:18:58.043Z,983.6
2018-11-06T07:20:08.174Z,983.54
2018-11-06T07:21:18.309Z,983.6
2018-11-06T07:22:27.895Z,983.55
2018-11-06T07:23:38.034Z,983.59
2018-11-06T07:24:47.886Z,983.58
2018-11-06T07:25:57.741Z,983.58
2018-11-06T07:27:07.317Z,983.57
2018-11-06T07:28:17.173Z,983.56
2018-11-06T07:29:27.021Z,983.59
2018-11-06T07:30:36.868Z,983.58
2018-11-06T07:31:46.716Z,983.57
2018-11-06T07:32:56.615Z,983.63
2018-11-06T07:34:06.740Z,983.6
2018-11-06T07:35:16.711Z,983.62
2018-11-06T07:36:27.367Z,983.64
2018-11-06T07:37:37.218Z,983.64
2018-11-06T07:38:47.434Z,983.65
2018-11-06T07:39:57.020Z,983.64
2018-11-06T07:41:07.368Z,983.62
2018-11-06T07:42:18.445Z,983.57
2018-11-06T07:43:28.484Z,983.61
2018-11-06T07:44:38.669Z,983.55
2018-11-06T07:45:48.795Z,983.56
2018-11-06T07:46:58.927Z,983.57
2018-11-06T07:48:08.775Z,983.58
2018-11-06T07:49:17.814Z,983.57
2018-11-06T07:50:27.762Z,983.61
2018-11-06T07:51:38.560Z,983.59
2018-11-06T07:52:48.471Z,983.61
2018-11-06T07:53:58.336Z,983.53
2018-11-06T07:55:08.480Z,983.53
2018-11-06T07:56:18.479Z,983.55
2018-11-06T07:57:29.195Z,983.5
2018-11-06T07:58:39.313Z,983.51
2018-11-06T07:59:48.611Z,983.46
2018-11-06T08:00:57.921Z,983.46
2018-11-06T08:02:08.094Z,983.43
2018-11-06T08:03:18.232Z,983.41
2018-11-06T08:04:28.162Z,983.44
2018-11-06T08:05:37.829Z,983.47
2018-11-06T08:06:47.678Z,983.47
2018-11-06T08:07:57.526Z,983.5
2018-11-06T08:09:07.099Z,983.46
2018-11-06T08:10:16.397Z,983.54
2018-11-06T08:11:26.530Z,983.55
2018-11-06T08:12:36.381Z,983.54
2018-11-06T08:13:46.559Z,983.56
2018-11-06T08:14:56.154Z,983.55
2018-11-06T08:16:06.585Z,983.54
2018-11-06T08:17:16.706Z,983.52
2018-11-06T08:18:26.843Z,983.53
2018-11-06T08:19:36.969Z,983.53
2018-11-06T08:20:47.222Z,983.5
2018-11-06T08:21:57.483Z,983.45
2018-11-06T08:23:07.335Z,983.45
2018-11-06T08:24:17.469Z,983.45
2018-11-06T08:25:26.827Z,983.45
2018-11-06T08:26:36.682Z,983.41
2018-11-06T08:27:46.919Z,983.37
2018-11-06T08:28:57.636Z,983.34
2018-11-06T08:30:07.495Z,983.28
2018-11-06T08:31:18.147Z,983.27
2018-11-06T08:32:31.895Z,983.27
2018-11-06T08:33:45.801Z,983.25
2018-11-06T08:34:55.664Z,983.24
2018-11-06T08:36:04.692Z,983.19
2018-11-06T08:37:21.580Z,983.21
2018-11-06T08:38:31.707Z,983.15
2018-11-06T08:39:41.829Z,983.14
2018-11-06T08:40:51.954Z,983.09
2018-11-06T08:42:02.074Z,983.07
2018-11-06T08:43:11.954Z,983
2018-11-06T08:44:22.082Z,983.02
2018-11-06T08:45:31.664Z,982.97
2018-11-06T08:46:41.246Z,982.98
2018-11-06T08:47:51.104Z,982.93
2018-11-06T08:49:01.201Z,982.92
2018-11-06T08:50:11.085Z,982.87
2018-11-06T08:51:21.484Z,982.75
2018-11-06T08:52:31.338Z,982.75
2018-11-06T08:53:41.194Z,982.67
2018-11-06T08:54:50.820Z,982.62
2018-11-06T08:56:00.950Z,982.63
2018-11-06T08:57:11.076Z,982.61
2018-11-06T08:58:21.507Z,982.56
2018-11-06T08:59:31.084Z,982.57
2018-11-06T09:00:40.706Z,982.47
2018-11-06T09:01:50.572Z,982.46
2018-11-06T09:03:00.561Z,982.45
2018-11-06T09:04:10.705Z,982.39
2018-11-06T09:05:20.846Z,982.38
2018-11-06T09:06:30.812Z,982.3
2018-11-06T09:07:41.153Z,982.31
2018-11-06T09:08:51.370Z,982.29
2018-11-06T09:10:02.442Z,982.32
2018-11-06T09:11:11.800Z,982.34
2018-11-06T09:12:21.978Z,982.35
2018-11-06T09:13:31.931Z,982.32
2018-11-06T09:14:41.899Z,982.27
2018-11-06T09:15:51.944Z,982.27
2018-11-06T09:17:02.185Z,982.25
2018-11-06T09:18:12.999Z,982.27
2018-11-06T09:19:23.127Z,982.26
2018-11-06T09:20:32.977Z,982.31
2018-11-06T09:21:43.108Z,982.29
2018-11-06T09:22:53.234Z,982.31
2018-11-06T09:24:03.133Z,982.32
2018-11-06T09:25:12.983Z,982.34
2018-11-06T09:26:22.852Z,982.33
2018-11-06T09:27:32.428Z,982.43
2018-11-06T09:28:42.558Z,982.42
2018-11-06T09:29:52.461Z,982.42
2018-11-06T09:31:02.101Z,982.48
2018-11-06T09:32:12.926Z,982.5
2018-11-06T09:33:23.057Z,982.49
2018-11-06T09:34:33.204Z,982.49
2018-11-06T09:35:43.105Z,982.51
2018-11-06T09:36:53.230Z,982.52
2018-11-06T09:38:03.360Z,982.57
2018-11-06T09:39:13.484Z,982.58
2018-11-06T09:40:23.057Z,982.59
2018-11-06T09:41:32.172Z,982.61
2018-11-06T09:42:42.108Z,982.62
2018-11-06T09:43:52.236Z,982.62
2018-11-06T09:45:02.417Z,982.7
2018-11-06T09:46:12.585Z,982.68
2018-11-06T09:47:22.265Z,982.73
2018-11-06T09:48:32.387Z,982.69
2018-11-06T09:49:41.963Z,982.66
2018-11-06T09:50:51.815Z,982.65
2018-11-06T09:52:01.704Z,982.64
2018-11-06T09:53:12.069Z,982.68
2018-11-06T09:54:22.189Z,982.71
2018-11-06T09:55:31.766Z,982.71
2018-11-06T09:56:41.337Z,982.77
2018-11-06T09:57:51.459Z,982.76
2018-11-06T09:59:01.360Z,982.75
2018-11-06T10:00:11.562Z,982.71
2018-11-06T10:01:22.302Z,982.69
2018-11-06T10:02:32.435Z,982.72
2018-11-06T10:03:42.009Z,982.7
2018-11-06T10:04:55.621Z,982.69
2018-11-06T10:06:05.295Z,982.69
2018-11-06T10:07:16.462Z,982.64
2018-11-06T10:08:28.598Z,982.67
2018-11-06T10:09:38.726Z,982.63
2018-11-06T10:10:48.923Z,982.67
2018-11-06T10:11:58.499Z,982.67
2018-11-06T10:13:07.802Z,982.67
2018-11-06T10:14:17.647Z,982.68
2018-11-06T10:15:27.502Z,982.71
2018-11-06T10:16:37.528Z,982.68
2018-11-06T10:17:47.371Z,982.67
2018-11-06T10:18:57.493Z,982.7
2018-11-06T10:20:07.350Z,982.72
2018-11-06T10:21:17.539Z,982.75
2018-11-06T10:22:28.142Z,982.73
2018-11-06T10:23:37.993Z,982.74
2018-11-06T10:24:48.119Z,982.77
2018-11-06T10:25:58.268Z,982.75
2018-11-06T10:27:07.849Z,982.75
2018-11-06T10:28:18.023Z,982.72
2018-11-06T10:29:27.869Z,982.74
2018-11-06T10:30:38.045Z,982.74
2018-11-06T10:31:48.487Z,982.71
2018-11-06T10:32:58.349Z,982.67
2018-11-06T10:34:08.533Z,982.64
2018-11-06T10:35:18.387Z,982.62
2018-11-06T10:36:27.965Z,982.56
2018-11-06T10:37:37.543Z,982.52
2018-11-06T10:38:47.682Z,982.53
2018-11-06T10:39:57.855Z,982.52
2018-11-06T10:41:07.713Z,982.49
2018-11-06T10:42:16.739Z,982.52
2018-11-06T10:43:26.316Z,982.53
2018-11-06T10:44:36.506Z,982.53
2018-11-06T10:45:46.626Z,982.48
2018-11-06T10:46:56.750Z,982.48
2018-11-06T10:48:06.607Z,982.47
2018-11-06T10:49:16.466Z,982.46
2018-11-06T10:50:26.589Z,982.46
2018-11-06T10:51:36.816Z,982.44
2018-11-06T10:52:46.741Z,982.45
2018-11-06T10:53:56.862Z,982.39
2018-11-06T10:55:06.166Z,982.31
2018-11-06T10:56:16.017Z,982.31
2018-11-06T10:57:26.140Z,982.29
2018-11-06T10:58:36.272Z,982.31
2018-11-06T10:59:45.574Z,982.33
2018-11-06T11:00:55.152Z,982.34
2018-11-06T11:02:05.287Z,982.36
2018-11-06T11:03:15.464Z,982.36
2018-11-06T11:04:24.764Z,982.36
2018-11-06T11:05:34.362Z,982.34
2018-11-06T11:06:44.485Z,982.34
2018-11-06T11:07:54.614Z,982.32
2018-11-06T11:09:04.509Z,982.32
2018-11-06T11:10:14.098Z,982.31
2018-11-06T11:11:23.952Z,982.3
2018-11-06T11:12:34.240Z,982.34
2018-11-06T11:13:44.174Z,982.35
2018-11-06T11:14:54.134Z,982.36
2018-11-06T11:16:04.262Z,982.35
2018-11-06T11:17:13.565Z,982.36
2018-11-06T11:18:23.425Z,982.33
2018-11-06T11:19:33.284Z,982.36
2018-11-06T11:20:42.590Z,982.34
2018-11-06T11:21:52.716Z,982.32
2018-11-06T11:23:02.851Z,982.3
2018-11-06T11:24:13.000Z,982.31
2018-11-06T11:25:22.577Z,982.28
2018-11-06T11:26:36.948Z,982.22
2018-11-06T11:27:47.074Z,982.22
2018-11-06T11:28:56.932Z,982.21
2018-11-06T11:30:06.787Z,982.22
2018-11-06T11:31:16.642Z,982.21
2018-11-06T11:32:26.664Z,982.17
2018-11-06T11:33:36.650Z,982.16
2018-11-06T11:34:46.523Z,982.12
2018-11-06T11:35:56.666Z,982.12
2018-11-06T11:37:06.799Z,982.09
2018-11-06T11:38:16.931Z,982.09
2018-11-06T11:39:27.059Z,982.08
2018-11-06T11:40:36.914Z,982.08
2018-11-06T11:41:46.765Z,982.07
2018-11-06T11:42:56.630Z,982.05
2018-11-06T11:44:06.806Z,982.07
2018-11-06T11:45:16.656Z,982.03
2018-11-06T11:46:26.796Z,982.05
2018-11-06T11:47:36.372Z,982.03
2018-11-06T11:48:45.672Z,982.05
2018-11-06T11:49:55.859Z,982.03
2018-11-06T11:51:05.701Z,982.05
2018-11-06T11:52:15.826Z,981.98
2018-11-06T11:53:25.971Z,981.95
2018-11-06T11:54:35.819Z,981.92
2018-11-06T11:55:44.904Z,981.91
2018-11-06T11:56:55.029Z,981.99
2018-11-06T11:58:04.877Z,981.94
2018-11-06T11:59:14.727Z,981.95
2018-11-06T12:00:24.584Z,981.94
2018-11-06T12:01:34.741Z,981.92
2018-11-06T12:02:44.323Z,981.87
2018-11-06T12:03:54.453Z,981.96
2018-11-06T12:05:04.028Z,981.93
2018-11-06T12:06:13.328Z,981.91
2018-11-06T12:07:23.451Z,981.9
2018-11-06T12:08:33.572Z,981.85
2018-11-06T12:09:43.698Z,981.91
2018-11-06T12:10:53.857Z,981.87
2018-11-06T12:12:03.992Z,981.86
2018-11-06T12:13:13.923Z,981.85
2018-11-06T12:14:24.047Z,981.86
2018-11-06T12:15:34.169Z,981.84
2018-11-06T12:16:44.311Z,981.83
2018-11-06T12:17:53.884Z,981.86
2018-11-06T12:19:03.845Z,981.91
2018-11-06T12:20:14.028Z,981.94
2018-11-06T12:21:23.605Z,981.95
2018-11-06T12:22:33.177Z,982.01
2018-11-06T12:23:43.022Z,981.99
2018-11-06T12:24:53.425Z,982
2018-11-06T12:26:03.913Z,982
2018-11-06T12:27:13.764Z,982.01
2018-11-06T12:28:23.609Z,981.96
2018-11-06T12:29:33.734Z,981.96
2018-11-06T12:30:43.632Z,981.98
2018-11-06T12:31:53.761Z,981.96
2018-11-06T12:33:03.342Z,981.93
2018-11-06T12:34:13.470Z,981.94
2018-11-06T12:35:22.770Z,982.03
2018-11-06T12:36:32.751Z,982.02
2018-11-06T12:37:42.175Z,981.98
2018-11-06T12:38:52.031Z,981.94
2018-11-06T12:40:02.185Z,982
2018-11-06T12:41:12.046Z,981.98
2018-11-06T12:42:21.668Z,982
2018-11-06T12:43:31.592Z,981.96
2018-11-06T12:44:41.490Z,981.99
2018-11-06T12:45:51.334Z,982
2018-11-06T12:47:01.459Z,982
2018-11-06T12:48:11.363Z,982.02
2018-11-06T12:49:21.488Z,982
2018-11-06T12:50:31.345Z,982.02
2018-11-06T12:51:41.480Z,982
2018-11-06T12:52:51.349Z,981.99
2018-11-06T12:54:00.921Z,982
2018-11-06T12:55:10.509Z,981.98
2018-11-06T12:56:20.825Z,982.03
2018-11-06T12:57:31.038Z,981.98
2018-11-06T12:58:40.889Z,981.98
2018-11-06T12:59:51.059Z,981.99
2018-11-06T13:01:00.656Z,982.02
2018-11-06T13:02:10.515Z,981.96
2018-11-06T13:03:20.399Z,981.95
2018-11-06T13:04:31.225Z,981.96
2018-11-06T13:05:41.351Z,981.97
2018-11-06T13:06:51.471Z,981.97
2018-11-06T13:08:01.604Z,981.9
2018-11-06T13:09:11.181Z,981.93
2018-11-06T13:10:21.031Z,981.89
2018-11-06T13:11:30.895Z,981.91
2018-11-06T13:12:40.759Z,981.89
2018-11-06T13:13:50.887Z,981.88
2018-11-06T13:15:00.735Z,981.85
2018-11-06T13:16:10.605Z,981.85
2018-11-06T13:17:20.589Z,981.82
2018-11-06T13:18:30.720Z,981.79
2018-11-06T13:19:40.840Z,981.81
2018-11-06T13:20:50.967Z,981.75
2018-11-06T13:22:01.104Z,981.77
2018-11-06T13:23:11.003Z,981.76
2018-11-06T13:24:20.851Z,981.72
2018-11-06T13:25:30.771Z,981.72
2018-11-06T13:26:41.628Z,981.65
2018-11-06T13:27:51.300Z,981.65
2018-11-06T13:29:01.204Z,981.61
2018-11-06T13:30:11.334Z,981.58
2018-11-06T13:31:21.472Z,981.53
2018-11-06T13:32:31.380Z,981.53
2018-11-06T13:33:40.740Z,981.51
2018-11-06T13:34:50.911Z,981.5
2018-11-06T13:36:01.039Z,981.5
2018-11-06T13:37:10.903Z,981.46
2018-11-06T13:38:20.483Z,981.39
2018-11-06T13:39:30.605Z,981.37
2018-11-06T13:40:40.507Z,981.37
2018-11-06T13:41:50.660Z,981.35
2018-11-06T13:43:00.827Z,981.37
2018-11-06T13:44:10.833Z,981.39
2018-11-06T13:45:22.836Z,981.37
2018-11-06T13:46:34.537Z,981.37
2018-11-06T13:47:44.669Z,981.36
2018-11-06T13:48:54.796Z,981.37
2018-11-06T13:50:04.368Z,981.37
2018-11-06T13:51:14.497Z,981.35
2018-11-06T13:52:24.449Z,981.32
2018-11-06T13:53:34.305Z,981.35
2018-11-06T13:54:44.434Z,981.32
2018-11-06T13:55:54.012Z,981.33
2018-11-06T13:57:04.145Z,981.33
2018-11-06T13:58:13.769Z,981.29
2018-11-06T13:59:23.347Z,981.31
2018-11-06T14:00:32.643Z,981.31
2018-11-06T14:01:42.771Z,981.33
2018-11-06T14:02:52.900Z,981.27
2018-11-06T14:04:02.797Z,981.19
2018-11-06T14:05:13.153Z,981.19
2018-11-06T14:06:23.009Z,981.17
2018-11-06T14:07:32.857Z,981.15
2018-11-06T14:08:42.981Z,981.16
2018-11-06T14:09:52.613Z,981.13
2018-11-06T14:11:02.465Z,981.11
2018-11-06T14:12:12.045Z,981.07
2018-11-06T14:13:21.346Z,981.02
2018-11-06T14:14:31.473Z,981.04
2018-11-06T14:15:41.051Z,981.04
2018-11-06T14:16:51.189Z,981.03
2018-11-06T14:18:01.315Z,981.07
2018-11-06T14:19:10.621Z,981.03
2018-11-06T14:20:20.757Z,981.04
2018-11-06T14:21:30.660Z,981.04
2018-11-06T14:22:40.240Z,981.08
2018-11-06T14:23:50.375Z,981.08
2018-11-06T14:25:00.500Z,981.12
2018-11-06T14:26:10.639Z,981.08
2018-11-06T14:27:20.565Z,981.07
2018-11-06T14:28:30.956Z,981.07
2018-11-06T14:29:40.814Z,981.04
2018-11-06T14:30:50.667Z,981.05
2018-11-06T14:32:00.524Z,981.11
2018-11-06T14:33:10.429Z,981.14
2018-11-06T14:34:20.563Z,981.21
2018-11-06T14:35:30.693Z,981.24
2018-11-06T14:36:40.621Z,981.28